Time;durP1;ratioP1;P1;durP2;ratioP2;P2;SDS_P1;SDS_P2;PMS_P1;PMS_P2;Temp;Humidity;BMP_temperature;BMP_pressure;BME280_temperature;BME280_humidity;BME280_pressure;Samples;Min_cycle;Max_cycle;Signal;HPM_P1;HPM_P2
2022/09/08 00:01:39;;;;;;;13.68;3.00;;;;;;;19.10;100.00;100728.53;4955323;28;20046;-72
2022/09/08 00:04:05;;;;;;;9.93;2.78;;;;;;;19.07;100.00;100731.84;4971171;28;20038;-73
2022/09/08 00:06:32;;;;;;;8.60;2.90;;;;;;;19.02;100.00;100737.34;4976380;28;20089;-73
2022/09/08 00:08:58;;;;;;;11.82;2.88;;;;;;;19.00;100.00;100737.63;4976172;28;20041;-71
2022/09/08 00:11:28;;;;;;;9.82;2.90;;;;;;;18.90;100.00;100741.28;4966678;28;20132;-71
2022/09/08 00:13:59;;;;;;;11.63;2.90;;;;;;;18.81;100.00;100742.94;4956368;28;20479;-73
2022/09/08 00:16:25;;;;;;;10.40;3.75;;;;;;;18.82;100.00;100744.56;4956619;28;20415;-72
2022/09/08 00:18:51;;;;;;;9.88;3.65;;;;;;;18.72;100.00;100744.63;4971368;28;20047;-74
2022/09/08 00:21:25;;;;;;;9.55;3.13;;;;;;;18.75;100.00;100727.59;4955615;28;20027;-74
2022/09/08 00:23:51;;;;;;;12.73;3.38;;;;;;;18.69;100.00;100715.03;4944901;28;20074;-74
2022/09/08 00:26:19;;;;;;;11.35;2.90;;;;;;;18.67;100.00;100711.78;4937014;29;20468;-73
2022/09/08 00:28:45;;;;;;;8.40;3.00;;;;;;;18.63;100.00;100703.31;4937274;29;20459;-73
2022/09/08 00:31:10;;;;;;;12.25;3.00;;;;;;;18.58;100.00;100695.94;4956406;28;20145;-73
2022/09/08 00:33:36;;;;;;;12.90;3.28;;;;;;;18.63;100.00;100706.03;4956601;28;20503;-70
2022/09/08 00:36:03;;;;;;;9.15;3.15;;;;;;;18.55;100.00;100701.94;4962137;28;20494;-72
2022/09/08 00:38:30;;;;;;;9.60;2.90;;;;;;;18.54;100.00;100705.81;4975455;28;20046;-70
2022/09/08 00:40:56;;;;;;;10.48;3.10;;;;;;;18.53;100.00;100704.16;4968010;28;20666;-72
2022/09/08 00:43:33;;;;;;;7.70;2.60;;;;;;;18.54;100.00;100705.81;4951748;29;20044;-70
2022/09/08 00:46:05;;;;;;;8.63;2.58;;;;;;;18.52;100.00;100699.78;4936600;29;20019;-74
2022/09/08 00:48:31;;;;;;;9.40;2.80;;;;;;;18.43;100.00;100693.25;4937197;29;20043;-75
2022/09/08 00:50:58;;;;;;;9.02;2.97;;;;;;;18.42;100.00;100684.22;4962490;28;20027;-72
2022/09/08 00:53:25;;;;;;;12.05;2.80;;;;;;;18.44;100.00;100674.91;4956335;28;20035;-71
2022/09/08 00:55:51;;;;;;;7.75;2.50;;;;;;;18.41;100.00;100679.03;4954922;28;20146;-70
2022/09/08 00:58:17;;;;;;;9.63;2.97;;;;;;;18.35;100.00;100685.63;4955756;28;20031;-74
2022/09/08 01:00:43;;;;;;;9.13;2.88;;;;;;;18.29;100.00;100673.06;4953869;28;20605;-75
2022/09/08 01:03:12;;;;;;;8.32;3.03;;;;;;;18.24;100.00;100668.44;4951040;28;20137;-75
2022/09/08 01:05:53;;;;;;;8.65;2.83;;;;;;;18.25;100.00;100667.31;4956078;28;20034;-74
2022/09/08 01:14:43;;;;;;;9.80;2.90;;;;;;;18.17;100.00;100674.19;4942053;28;20098;-72
2022/09/08 01:17:17;;;;;;;10.05;3.42;;;;;;;18.10;100.00;100667.38;4936622;29;20032;-76
2022/09/08 01:19:46;;;;;;;10.20;2.60;;;;;;;18.11;100.00;100653.41;4973067;28;20038;-73
2022/09/08 01:22:18;;;;;;;7.28;2.22;;;;;;;17.99;100.00;100656.47;4957467;28;20032;-71
2022/09/08 01:24:49;;;;;;;;;;;;;;;18.16;100.00;100652.56;4936792;29;20031;-71
2022/09/08 01:27:23;;;;;;;9.25;2.65;;;;;;;17.97;100.00;100635.97;4935934;29;19915;-72
2022/09/08 01:29:53;;;;;;;11.38;2.65;;;;;;;17.99;100.00;100631.81;4955884;28;20042;-74
2022/09/08 01:32:19;;;;;;;6.88;2.08;;;;;;;18.01;100.00;100620.59;4959479;28;20054;-71
2022/09/08 01:34:45;;;;;;;3.95;1.95;;;;;;;18.02;100.00;100624.97;4955259;28;20031;-74
2022/09/08 01:37:11;;;;;;;6.63;2.22;;;;;;;18.07;100.00;100624.94;4979470;28;20125;-72
2022/09/08 01:39:37;;;;;;;4.95;2.13;;;;;;;18.06;100.00;100624.13;4974566;28;20070;-71
2022/09/08 01:42:02;;;;;;;5.90;2.30;;;;;;;18.05;100.00;100635.38;4961528;28;20499;-70
2022/09/08 01:44:28;;;;;;;5.03;1.90;;;;;;;17.96;100.00;100639.78;4955575;28;20055;-73
2022/09/08 01:46:54;;;;;;;9.88;2.35;;;;;;;17.94;100.00;100620.91;4969916;28;20480;-69
2022/09/08 01:49:19;;;;;;;6.80;2.25;;;;;;;17.89;100.00;100629.97;4954916;28;20132;-71
2022/09/08 01:51:45;;;;;;;6.57;2.28;;;;;;;17.94;100.00;100631.06;4967177;28;20475;-72
2022/09/08 01:54:10;;;;;;;9.50;2.03;;;;;;;17.84;100.00;100621.72;4943450;28;20083;-74
2022/09/08 01:56:35;;;;;;;6.13;2.03;;;;;;;17.92;100.00;100617.66;4952163;28;20038;-71
2022/09/08 01:59:03;;;;;;;4.60;1.98;;;;;;;17.96;100.00;100624.19;4961907;28;20039;-71
2022/09/08 02:01:29;;;;;;;5.57;2.03;;;;;;;17.81;100.00;100616.00;4987706;28;20020;-72
2022/09/08 02:03:54;;;;;;;8.32;2.35;;;;;;;17.84;100.00;100609.97;4941892;29;20038;-74
2022/09/08 02:06:23;;;;;;;7.55;2.40;;;;;;;17.89;100.00;100610.00;4936028;29;20023;-71
2022/09/08 02:08:52;;;;;;;7.95;2.50;;;;;;;17.77;100.00;100602.06;4957906;28;20034;-70
2022/09/08 02:11:18;;;;;;;6.10;2.13;;;;;;;17.73;100.00;100598.25;4983905;28;20038;-72
2022/09/08 02:13:45;;;;;;;5.15;2.10;;;;;;;17.67;100.00;100583.75;4954570;28;20031;-70
2022/09/08 02:16:11;;;;;;;5.32;2.20;;;;;;;17.70;100.00;100582.38;4954442;28;20115;-72
2022/09/08 02:18:38;;;;;;;4.85;2.15;;;;;;;17.76;100.00;100584.00;4954425;28;20122;-71
2022/09/08 02:21:16;;;;;;;7.10;2.60;;;;;;;17.80;100.00;100585.09;4953468;28;20502;-74
2022/09/08 02:23:44;;;;;;;5.13;2.13;;;;;;;17.77;100.00;100574.69;4964172;28;20478;-73
2022/09/08 02:26:20;;;;;;;6.25;2.22;;;;;;;17.79;100.00;100585.38;4973760;28;20069;-72
2022/09/08 02:28:46;;;;;;;9.27;2.90;;;;;;;17.77;100.00;100582.91;4974198;28;20034;-71
2022/09/08 02:31:12;;;;;;;5.15;2.40;;;;;;;17.74;100.00;100588.94;4954254;28;20115;-73
2022/09/08 02:33:39;;;;;;;7.00;2.20;;;;;;;17.71;100.00;100584.03;4935231;29;20032;-72
2022/09/08 02:36:05;;;;;;;6.78;2.42;;;;;;;17.67;100.00;100580.19;4935315;29;20460;-74
2022/09/08 02:38:30;;;;;;;8.65;2.45;;;;;;;17.67;100.00;100575.53;4960947;28;20038;-72
2022/09/08 02:40:56;;;;;;;7.68;2.65;;;;;;;17.63;100.00;100579.13;4959590;28;20459;-74
2022/09/08 02:43:25;;;;;;;10.57;2.75;;;;;;;17.64;100.00;100578.03;4952645;28;20453;-72
2022/09/08 02:45:51;;;;;;;7.63;2.70;;;;;;;17.59;100.00;100587.06;4954504;28;20071;-71
2022/09/08 02:48:16;;;;;;;8.70;2.55;;;;;;;17.60;100.00;100579.69;4968716;28;20059;-73
2022/09/08 02:50:42;;;;;;;9.05;2.92;;;;;;;17.67;100.00;100582.94;4953656;28;20032;-74
2022/09/08 02:53:07;;;;;;;10.10;2.55;;;;;;;17.63;100.00;100579.13;4963845;28;20037;-71
2022/09/08 02:55:37;;;;;;;9.10;2.67;;;;;;;17.57;100.00;100589.25;4970365;28;20105;-73
2022/09/08 02:58:02;;;;;;;4.90;2.40;;;;;;;17.62;100.00;100582.94;4973095;28;20027;-72
2022/09/08 03:00:32;;;;;;;8.05;2.50;;;;;;;17.62;100.00;100577.47;4986936;28;20085;-70
2022/09/08 03:02:58;;;;;;;7.05;2.90;;;;;;;17.58;100.00;100584.63;4973166;28;20026;-72
2022/09/08 03:05:23;;;;;;;8.05;2.72;;;;;;;17.54;100.00;100579.69;4965307;28;20077;-71
2022/09/08 03:07:49;;;;;;;12.07;2.85;;;;;;;17.47;100.00;100573.69;4954212;28;20034;-71
2022/09/08 03:10:14;;;;;;;5.00;2.50;;;;;;;17.44;100.00;100579.72;4959279;28;20483;-73
2022/09/08 03:12:40;;;;;;;12.98;2.70;;;;;;;17.43;100.00;100589.03;4973606;28;20502;-72
2022/09/08 03:15:06;;;;;;;7.68;3.03;;;;;;;17.40;100.00;100584.09;4967877;28;20042;-70
2022/09/08 03:17:32;;;;;;;8.35;2.88;;;;;;;17.28;100.00;100578.13;4968986;28;20395;-71
2022/09/08 03:19:57;;;;;;;10.85;2.75;;;;;;;17.27;100.00;100580.03;4955581;28;20027;-70
2022/09/08 03:22:22;;;;;;;6.38;2.53;;;;;;;17.26;100.00;100578.41;4957609;28;20450;-74
2022/09/08 03:24:47;;;;;;;10.38;3.00;;;;;;;17.28;100.00;100587.13;4954880;28;20039;-71
2022/09/08 03:27:13;;;;;;;8.48;2.70;;;;;;;17.29;100.00;100577.84;4972335;28;20480;-73
2022/09/08 03:29:39;;;;;;;8.07;2.80;;;;;;;17.27;100.00;100584.69;4957803;28;20097;-74
2022/09/08 03:32:04;;;;;;;7.15;2.97;;;;;;;17.32;100.00;100588.22;4972160;28;20043;-74
2022/09/08 03:34:30;;;;;;;7.65;2.90;;;;;;;17.29;100.00;100591.50;4957412;28;20030;-73
2022/09/08 03:36:55;;;;;;;7.15;2.92;;;;;;;17.28;100.00;100608.19;4956588;28;20038;-70
2022/09/08 03:39:21;;;;;;;5.65;2.60;;;;;;;17.18;100.00;100609.03;4970680;28;20035;-70
2022/09/08 03:41:47;;;;;;;6.10;2.90;;;;;;;17.09;100.00;100627.91;4976638;28;20218;-70
2022/09/08 03:44:12;;;;;;;7.03;3.03;;;;;;;17.03;100.00;100631.75;4976567;28;20557;-72
2022/09/08 03:46:38;;;;;;;8.55;2.90;;;;;;;16.99;100.00;100625.19;4954962;28;20035;-71
2022/09/08 03:49:04;;;;;;;10.18;2.90;;;;;;;16.93;100.00;100582.53;4957385;28;20053;-72
2022/09/08 03:51:29;;;;;;;8.77;3.10;;;;;;;16.92;100.00;100583.63;4957250;28;20039;-73
2022/09/08 03:54:46;;;;;;;8.65;3.05;;;;;;;16.86;100.00;100590.16;4957302;28;20138;-72
2022/09/08 03:56:53;;;;;;;8.63;2.92;;;;;;;16.85;100.00;100583.88;4940985;28;20423;-70
2022/09/08 03:59:18;;;;;;;7.85;3.00;;;;;;;16.82;100.00;100570.78;4937911;29;20032;-73
2022/09/08 04:01:44;;;;;;;6.18;2.50;;;;;;;16.79;100.00;100563.94;4935891;29;20038;-72
2022/09/08 04:04:09;;;;;;;6.65;2.55;;;;;;;16.72;100.00;100563.38;4937588;29;20036;-72
2022/09/08 04:06:35;;;;;;;4.68;2.55;;;;;;;16.63;100.00;100575.94;4953004;28;20034;-72
2022/09/08 04:09:00;;;;;;;8.07;3.20;;;;;;;16.58;100.00;100573.22;4940709;28;20043;-72
2022/09/08 04:11:26;;;;;;;7.25;3.38;;;;;;;16.53;100.00;100570.47;4976514;28;20062;-70
2022/09/08 04:13:51;;;;;;;9.38;3.33;;;;;;;16.47;100.00;100567.75;4974927;28;20050;-75
2022/09/08 04:16:18;;;;;;;11.00;3.28;;;;;;;16.49;100.00;100570.19;4962496;28;20391;-72
2022/09/08 04:18:44;;;;;;;7.20;2.85;;;;;;;16.40;100.00;100571.84;4956729;28;20032;-72
2022/09/08 04:21:10;;;;;;;6.30;3.22;;;;;;;16.32;100.00;100578.66;4956429;28;20038;-72
2022/09/08 04:23:37;;;;;;;9.20;3.25;;;;;;;16.31;100.00;100574.28;4955907;28;20051;-73
2022/09/08 04:26:06;;;;;;;8.52;3.28;;;;;;;16.32;100.00;100575.91;4964506;28;20035;-70
2022/09/08 04:28:33;;;;;;;6.95;2.72;;;;;;;16.31;100.00;100574.28;4956381;28;20035;-73
2022/09/08 04:30:58;;;;;;;8.00;3.00;;;;;;;16.34;100.00;100573.72;4956682;28;20042;-71
2022/09/08 04:33:23;;;;;;;8.15;2.90;;;;;;;16.38;100.00;100584.91;4960182;28;20039;-72
2022/09/08 04:35:49;;;;;;;9.93;3.25;;;;;;;16.39;100.00;100592.03;4976070;28;20027;-70
2022/09/08 04:38:14;;;;;;;6.93;3.00;;;;;;;16.42;100.00;100589.56;4975549;28;20030;-71
2022/09/08 04:40:40;;;;;;;8.05;3.00;;;;;;;16.46;100.00;100589.88;4975910;28;20034;-73
2022/09/08 04:43:06;;;;;;;5.90;3.35;;;;;;;16.48;100.00;100587.66;4961136;28;20062;-71
2022/09/08 04:45:31;;;;;;;9.70;3.83;;;;;;;16.52;100.00;100594.25;4970763;28;20079;-71
2022/09/08 04:47:56;;;;;;;6.32;3.17;;;;;;;16.59;100.00;100599.44;4971036;28;20037;-71
2022/09/08 04:50:22;;;;;;;6.97;3.38;;;;;;;16.62;100.00;100588.78;4956394;28;20043;-73
2022/09/08 04:52:47;;;;;;;9.70;3.42;;;;;;;16.66;100.00;100591.78;4957872;28;20034;-71
2022/09/08 04:55:13;;;;;;;6.82;3.17;;;;;;;16.69;100.00;100590.44;4951554;29;20472;-71
2022/09/08 04:57:38;;;;;;;7.18;3.22;;;;;;;16.68;100.00;100594.25;4936733;29;20032;-71
2022/09/08 05:00:05;;;;;;;9.40;3.55;;;;;;;16.68;100.00;100597.78;4936636;29;20455;-71
2022/09/08 05:02:30;;;;;;;8.50;3.45;;;;;;;16.67;100.00;100607.09;4949644;28;20050;-73
2022/09/08 05:04:56;;;;;;;8.10;3.40;;;;;;;16.70;100.00;100601.09;4950865;28;20032;-73
2022/09/08 05:07:22;;;;;;;8.90;3.95;;;;;;;16.71;100.00;100599.16;4974702;28;20035;-73
2022/09/08 05:09:47;;;;;;;7.65;3.65;;;;;;;16.70;100.00;100603.81;4974945;28;20510;-73
2022/09/08 05:12:13;;;;;;;8.57;3.38;;;;;;;16.69;100.00;100599.44;4970114;28;20027;-72
2022/09/08 05:14:38;;;;;;;7.00;3.70;;;;;;;16.73;100.00;100606.00;4955414;28;20070;-72
2022/09/08 05:17:03;;;;;;;8.90;3.85;;;;;;;16.72;100.00;100606.28;4955456;28;20118;-70
2022/09/08 05:19:29;;;;;;;9.15;3.55;;;;;;;16.75;100.00;100605.75;4954309;28;20379;-71
2022/09/08 05:21:55;;;;;;;8.68;3.50;;;;;;;16.70;100.00;100605.72;4983813;28;20027;-72
2022/09/08 05:24:21;;;;;;;9.70;3.80;;;;;;;16.70;100.00;100603.81;4955142;28;20035;-72
2022/09/08 05:26:46;;;;;;;7.93;3.75;;;;;;;16.71;100.00;100604.63;4970310;28;20027;-74
2022/09/08 05:29:12;;;;;;;8.05;4.15;;;;;;;16.68;100.00;100611.44;4970165;28;20062;-74
2022/09/08 05:31:38;;;;;;;7.85;3.85;;;;;;;16.68;100.00;100605.19;4970529;28;20062;-71
2022/09/08 05:34:04;;;;;;;9.68;4.47;;;;;;;16.70;100.00;100592.91;4969507;28;20468;-70
2022/09/08 05:36:32;;;;;;;8.52;4.00;;;;;;;16.68;100.00;100600.53;4953234;28;20544;-71
2022/09/08 05:38:59;;;;;;;12.77;4.57;;;;;;;16.71;100.00;100602.72;4936260;29;20110;-71
2022/09/08 05:41:25;;;;;;;10.15;4.03;;;;;;;16.69;100.00;100595.91;4967151;28;20085;-73
2022/09/08 05:43:55;;;;;;;6.95;4.00;;;;;;;16.70;100.00;100601.09;4971937;28;20050;-73
2022/09/08 05:46:21;;;;;;;9.60;4.15;;;;;;;16.69;100.00;100599.44;4966849;28;20462;-73
2022/09/08 05:48:47;;;;;;;8.18;4.10;;;;;;;16.68;100.00;100597.78;4974409;28;20033;-70
2022/09/08 05:51:17;;;;;;;9.38;4.15;;;;;;;16.72;100.00;100603.56;4974715;28;20114;-72
2022/09/08 05:53:43;;;;;;;9.23;4.72;;;;;;;16.72;100.00;100607.09;4973891;28;20043;-72
2022/09/08 05:56:10;;;;;;;10.23;4.43;;;;;;;16.62;100.00;100607.91;4955043;28;20031;-71
2022/09/08 05:58:36;;;;;;;7.57;4.32;;;;;;;16.66;100.00;100609.00;4953530;28;20379;-70
2022/09/08 06:01:04;;;;;;;7.65;4.43;;;;;;;16.65;100.00;100596.44;4964602;28;20042;-70
2022/09/08 06:03:30;;;;;;;7.88;4.35;;;;;;;16.69;100.00;100602.19;4956278;28;20094;-71
2022/09/08 06:05:56;;;;;;;9.50;5.03;;;;;;;16.63;100.00;100597.81;4966297;28;20471;-71
2022/09/08 06:08:22;;;;;;;7.28;4.68;;;;;;;16.69;100.00;100606.81;4950157;28;20036;-71
2022/09/08 06:10:52;;;;;;;7.30;4.57;;;;;;;16.69;100.00;100612.28;4949449;28;20091;-72
2022/09/08 06:13:17;;;;;;;7.95;4.70;;;;;;;16.68;100.00;100611.44;4968984;28;20498;-71
2022/09/08 06:15:43;;;;;;;9.18;4.68;;;;;;;16.65;100.00;100612.00;4954434;28;20047;-71
2022/09/08 06:18:08;;;;;;;7.88;4.47;;;;;;;16.61;100.00;100610.91;4954552;28;20439;-71
2022/09/08 06:20:35;;;;;;;8.65;5.05;;;;;;;16.60;100.00;100615.53;4981528;28;20041;-72
2022/09/08 06:23:00;;;;;;;9.38;5.00;;;;;;;16.60;100.00;100614.72;4973652;28;20039;-73
2022/09/08 06:25:27;;;;;;;7.85;5.30;;;;;;;16.58;100.00;100598.63;4973450;28;20023;-72
2022/09/08 06:28:25;;;;;;;8.10;5.25;;;;;;;16.64;100.00;100602.19;4973831;28;20483;-74
2022/09/08 06:30:50;;;;;;;9.35;5.43;;;;;;;16.66;100.00;100602.72;4958579;28;20043;-71
2022/09/08 06:33:23;;;;;;;9.25;5.30;;;;;;;16.62;100.00;100607.06;4953133;28;20475;-73
2022/09/08 06:35:58;;;;;;;9.35;5.30;;;;;;;16.63;100.00;100609.53;4969296;28;20394;-71
2022/09/08 06:38:34;;;;;;;8.15;5.32;;;;;;;16.66;100.00;100616.38;4954279;28;20067;-72
2022/09/08 06:41:20;;;;;;;9.95;5.60;;;;;;;16.70;100.00;100612.03;4953361;28;20085;-72
2022/09/08 06:43:50;;;;;;;11.55;5.20;;;;;;;16.66;100.00;100614.47;4953919;29;20052;-74
2022/09/08 06:46:23;;;;;;;10.20;5.35;;;;;;;16.71;100.00;100619.09;4953226;28;20067;-72
2022/09/08 06:48:53;;;;;;;9.57;5.13;;;;;;;16.72;100.00;100619.94;4967586;28;20031;-72
2022/09/08 06:51:28;;;;;;;7.47;5.60;;;;;;;16.70;100.00;100619.38;4952908;28;20034;-72
2022/09/08 06:54:02;;;;;;;11.38;6.38;;;;;;;16.74;100.00;100623.22;4968949;28;20035;-72
2022/09/08 06:56:39;;;;;;;12.05;6.47;;;;;;;16.72;100.00;100620.75;4972673;28;20023;-73
2022/09/08 06:59:24;;;;;;;10.95;6.05;;;;;;;16.69;100.00;100624.03;4972102;28;20035;-71
2022/09/08 07:02:23;;;;;;;11.07;6.30;;;;;;;16.69;100.00;100620.50;4955795;28;20038;-71
2022/09/08 07:04:57;;;;;;;11.52;6.32;;;;;;;16.67;100.00;100623.50;5003720;28;20058;-73
2022/09/08 07:07:46;;;;;;;10.55;6.72;;;;;;;16.73;100.00;100619.66;4977141;28;20030;-71
2022/09/08 07:10:19;;;;;;;10.40;6.65;;;;;;;16.73;100.00;100629.78;4953480;28;20043;-72
2022/09/08 07:12:59;;;;;;;11.10;6.55;;;;;;;16.76;100.00;100619.13;4939092;29;20042;-76
2022/09/08 07:15:27;;;;;;;13.32;7.10;;;;;;;16.83;100.00;100616.94;4952774;28;20114;-71
2022/09/08 07:18:12;;;;;;;12.07;7.25;;;;;;;16.90;100.00;100618.63;4948689;28;20061;-71
2022/09/08 07:20:37;;;;;;;9.98;6.70;;;;;;;16.90;100.00;100624.09;4938731;29;20036;-71
2022/09/08 07:23:21;;;;;;;11.18;7.30;;;;;;;16.93;100.00;100627.09;4938427;29;20031;-71
2022/09/08 07:26:11;;;;;;;13.57;7.13;;;;;;;16.93;100.00;100623.53;4938453;29;20610;-71
2022/09/08 07:28:44;;;;;;;12.27;6.88;;;;;;;16.91;100.00;100620.25;4938369;29;20039;-71
2022/09/08 07:31:18;;;;;;;12.07;7.15;;;;;;;16.91;100.00;100626.56;4952921;28;20114;-70
2022/09/08 07:33:47;;;;;;;12.07;7.13;;;;;;;16.86;100.00;100625.69;4974925;28;20052;-72
2022/09/08 07:36:15;;;;;;;13.55;7.32;;;;;;;16.95;100.00;100633.13;4975587;28;20031;-72
2022/09/08 07:39:10;;;;;;;10.50;7.45;;;;;;;17.04;100.00;100627.09;4976691;28;20471;-71
2022/09/08 07:41:54;;;;;;;10.10;7.15;;;;;;;17.08;100.00;100625.47;4966696;28;20387;-73
2022/09/08 07:44:21;;;;;;;12.85;7.22;;;;;;;17.05;100.00;100629.56;4941445;28;20110;-70
2022/09/08 07:47:14;;;;;;;10.68;7.45;;;;;;;17.11;100.00;100625.72;4962036;28;20579;-71
2022/09/08 07:50:04;;;;;;;14.70;7.88;;;;;;;17.17;100.00;100630.09;4955164;28;20534;-72
2022/09/08 07:52:47;;;;;;;11.68;7.63;;;;;;;17.14;100.00;100629.81;4957746;28;20110;-73
2022/09/08 07:55:39;;;;;;;13.30;7.75;;;;;;;17.14;100.00;100624.34;4938473;29;20031;-71
2022/09/08 07:58:15;;;;;;;;;;;;;;;17.27;100.00;100628.44;4947778;28;20039;-71
2022/09/08 08:01:12;;;;;;;11.70;7.28;;;;;;;17.12;100.00;100638.31;4951986;28;20333;-71
2022/09/08 08:03:49;;;;;;;9.05;6.50;;;;;;;17.02;100.00;100643.75;4955572;28;20090;-70
2022/09/08 08:06:34;;;;;;;10.55;7.10;;;;;;;16.90;100.00;100637.75;4956457;28;20118;-71
2022/09/08 08:09:17;;;;;;;8.98;6.57;;;;;;;16.92;100.00;100633.63;4971895;28;20032;-71
2022/09/08 08:11:48;;;;;;;9.77;7.15;;;;;;;16.98;100.00;100642.66;4956071;28;20039;-71
2022/09/08 08:14:45;;;;;;;9.27;7.18;;;;;;;16.98;100.00;100638.03;4956918;28;20027;-72
2022/09/08 08:17:21;;;;;;;8.50;6.47;;;;;;;17.06;100.00;100638.56;4967716;28;20054;-72
2022/09/08 08:19:49;;;;;;;10.23;6.45;;;;;;;17.08;100.00;100633.66;4974708;28;20038;-72
2022/09/08 08:22:27;;;;;;;8.65;5.97;;;;;;;17.10;100.00;100645.94;4965574;28;20040;-70
2022/09/08 08:25:10;;;;;;;8.30;5.45;;;;;;;17.20;100.00;100647.06;4937682;29;20094;-71
2022/09/08 08:27:39;;;;;;;8.70;5.65;;;;;;;17.22;100.00;100648.41;4975110;28;20118;-71
2022/09/08 08:30:21;;;;;;;7.93;5.22;;;;;;;17.26;100.00;100645.94;4956268;28;20023;-71
2022/09/08 08:33:08;;;;;;;7.13;4.60;;;;;;;17.27;100.00;100644.84;4959837;28;20063;-71
2022/09/08 08:35:33;;;;;;;10.00;4.55;;;;;;;17.34;100.00;100643.47;4956113;28;20035;-71
2022/09/08 08:38:00;;;;;;;6.82;4.22;;;;;;;17.39;100.00;100639.91;4971282;28;20395;-71
2022/09/08 08:40:35;;;;;;;9.88;4.75;;;;;;;17.50;100.00;100643.47;4956259;28;20038;-71
2022/09/08 08:43:38;;;;;;;8.60;4.10;;;;;;;17.58;100.00;100642.88;4955020;28;20159;-71
2022/09/08 08:46:12;;;;;;;6.43;3.90;;;;;;;17.61;100.00;100638.78;4956181;28;20036;-71
2022/09/08 08:49:10;;;;;;;5.47;3.90;;;;;;;17.73;100.00;100642.03;4953285;28;20035;-71
2022/09/08 08:51:53;;;;;;;7.80;4.07;;;;;;;17.77;100.00;100643.13;4942302;28;20047;-71
2022/09/08 08:54:31;;;;;;;5.38;3.58;;;;;;;17.74;100.00;100662.00;4956270;28;20057;-71
2022/09/08 08:57:32;;;;;;;6.93;3.70;;;;;;;17.66;100.00;100653.28;4956203;28;20039;-72
2022/09/08 09:00:15;;;;;;;7.13;3.85;;;;;;;17.62;100.00;100649.44;4956295;28;20467;-73
2022/09/08 09:03:18;;;;;;;7.00;3.63;;;;;;;17.67;100.00;100643.13;4977219;28;20034;-76
2022/09/08 09:05:57;;;;;;;9.23;3.47;;;;;;;17.63;100.00;100642.03;4958533;28;20142;-73
2022/09/08 09:08:38;;;;;;;6.68;2.25;;;;;;;17.70;100.00;100639.84;4943846;29;20426;-73
2022/09/08 09:11:06;;;;;;;4.68;2.03;;;;;;;17.87;100.00;100643.09;4938463;28;20384;-72
2022/09/08 09:13:53;;;;;;;6.63;2.10;;;;;;;17.92;100.00;100638.69;4952672;28;20035;-73
2022/09/08 09:17:06;;;;;;;5.53;2.30;;;;;;;18.10;100.00;100640.84;4952211;28;20041;-73
2022/09/08 09:20:01;;;;;;;6.93;2.40;;;;;;;18.10;100.00;100635.38;4971038;28;20047;-74
2022/09/08 09:22:43;;;;;;;8.05;2.05;;;;;;;18.16;100.00;100639.72;4969917;28;20035;-71
2022/09/08 09:25:27;;;;;;;3.67;1.70;;;;;;;18.20;100.00;100635.28;4955236;28;20039;-72
2022/09/08 09:28:40;;;;;;;6.28;1.85;;;;;;;18.23;100.00;100632.00;4955115;28;20483;-72
2022/09/08 09:31:37;;;;;;;7.88;2.33;;;;;;;18.32;100.00;100632.22;4985045;28;20042;-71
2022/09/08 09:34:24;;;;;;;7.10;1.98;;;;;;;18.26;100.00;100638.03;4968615;28;20550;-71
2022/09/08 09:37:27;;;;;;;4.65;1.80;;;;;;;18.27;100.00;100637.75;4972807;28;20035;-71
2022/09/08 09:40:13;;;;;;;7.28;2.03;;;;;;;18.28;100.00;100638.53;4973991;28;20027;-71
2022/09/08 09:42:53;;;;;;;7.13;2.20;;;;;;;18.32;100.00;100639.63;4935650;29;20074;-72
2022/09/08 09:45:33;;;;;;;7.35;1.90;;;;;;;18.33;100.00;100638.53;4935921;29;20059;-72
2022/09/08 09:48:30;;;;;;;7.68;2.10;;;;;;;18.38;100.00;100639.31;4935539;29;20039;-72
2022/09/08 09:51:24;;;;;;;7.93;2.25;;;;;;;18.44;100.00;100636.56;4950364;28;20036;-73
2022/09/08 09:54:01;;;;;;;8.73;1.60;;;;;;;18.49;100.00;100636.50;4933833;29;20055;-72
2022/09/08 09:56:41;;;;;;;7.03;1.83;;;;;;;18.60;100.00;100641.66;4935096;29;20027;-72
2022/09/08 09:59:38;;;;;;;3.17;1.77;;;;;;;18.59;100.00;100640.00;4935550;29;20031;-72
2022/09/08 10:02:39;;;;;;;5.13;1.70;;;;;;;18.54;100.00;100642.78;4942867;28;20051;-74
2022/09/08 10:05:32;;;;;;;7.93;2.00;;;;;;;18.53;100.00;100649.34;4966456;28;20090;-72
2022/09/08 10:08:34;;;;;;;8.57;2.20;;;;;;;18.63;100.00;100639.44;4969483;28;20385;-75
2022/09/08 10:11:14;;;;;;;7.72;1.75;;;;;;;18.63;96.99;100647.66;4970831;28;20027;-73
2022/09/08 10:13:59;;;;;;;7.97;2.10;;;;;;;18.63;98.13;100640.28;4973377;28;20037;-74
2022/09/08 10:16:45;;;;;;;8.55;1.95;;;;;;;18.62;94.36;100646.03;4972460;28;20105;-73
2022/09/08 10:19:35;;;;;;;8.40;2.58;;;;;;;18.68;95.12;100653.94;4959607;28;20043;-74
2022/09/08 10:22:22;;;;;;;6.82;1.85;;;;;;;18.70;99.12;100651.72;4956823;28;20048;-72
2022/09/08 10:25:23;;;;;;;8.10;1.88;;;;;;;18.66;92.07;100650.66;4973530;28;20022;-73
2022/09/08 10:27:54;;;;;;;7.53;2.35;;;;;;;18.67;87.13;100654.22;4970859;28;20050;-72
2022/09/08 10:30:19;;;;;;;;;;;;;;;18.76;91.69;100658.78;4967549;28;20030;-72
2022/09/08 10:33:18;;;;;;;9.70;1.98;;;;;;;18.71;89.52;100661.59;4973689;28;19910;-73
2022/09/08 10:35:49;;;;;;;5.18;1.67;;;;;;;18.67;85.52;100659.69;4973538;28;20062;-74
2022/09/08 10:38:37;;;;;;;5.30;1.83;;;;;;;18.68;85.80;100653.94;4963572;28;20059;-74
2022/09/08 10:41:21;;;;;;;5.97;1.80;;;;;;;18.75;86.56;100656.34;4935475;29;20440;-72
2022/09/08 10:44:29;;;;;;;7.35;1.95;;;;;;;18.78;88.44;100645.66;4950684;28;20038;-73
2022/09/08 10:47:16;;;;;;;8.32;2.00;;;;;;;18.78;87.70;100639.31;4973494;28;20039;-72
2022/09/08 10:50:07;;;;;;;9.18;1.95;;;;;;;18.85;89.47;100650.81;4956492;28;20486;-74
2022/09/08 10:52:49;;;;;;;5.30;1.90;;;;;;;18.86;90.15;100638.75;4954067;28;20034;-73
2022/09/08 10:55:55;;;;;;;6.18;1.80;;;;;;;18.87;91.93;100642.31;4946019;28;20032;-71
2022/09/08 10:58:37;;;;;;;7.70;2.17;;;;;;;18.80;90.87;100637.13;4939675;28;20059;-73
2022/09/08 11:01:38;;;;;;;8.55;1.90;;;;;;;18.74;94.18;100638.28;4949602;28;20027;-72
2022/09/08 11:04:24;;;;;;;4.18;1.70;;;;;;;18.79;100.00;100640.97;4949416;28;20043;-73
2022/09/08 11:06:50;;;;;;;7.13;2.85;;;;;;;18.84;96.33;100643.69;4970101;28;20030;-73
2022/09/08 11:09:34;;;;;;;9.48;2.10;;;;;;;18.90;95.81;100628.88;4951340;28;20028;-73
2022/09/08 11:12:18;;;;;;;7.43;1.95;;;;;;;19.05;97.08;100635.31;4935047;28;20118;-71
2022/09/08 11:15:01;;;;;;;9.63;1.83;;;;;;;19.02;91.45;100627.66;4952356;28;20479;-72
2022/09/08 11:17:42;;;;;;;8.27;2.20;;;;;;;19.16;93.70;100623.16;4972352;28;20073;-71
2022/09/08 11:20:25;;;;;;;8.23;2.17;;;;;;;19.27;89.03;100624.69;4951728;28;20050;-70
2022/09/08 11:23:28;;;;;;;8.10;1.58;;;;;;;19.27;87.29;100632.91;4948400;28;20114;-71
2022/09/08 11:26:13;;;;;;;5.47;1.85;;;;;;;19.24;81.39;100630.75;4960904;28;20445;-76
2022/09/08 11:29:09;;;;;;;7.22;1.90;;;;;;;19.17;81.18;100623.97;4964963;28;20117;-72
2022/09/08 11:32:22;;;;;;;11.07;2.38;;;;;;;19.22;79.40;100627.50;4953901;28;20039;-72
2022/09/08 11:35:06;;;;;;;6.63;1.90;;;;;;;19.20;77.34;100623.41;4956797;28;20077;-73
2022/09/08 11:38:08;;;;;;;9.73;2.08;;;;;;;19.36;78.59;100616.66;4968658;28;20039;-75
2022/09/08 11:41:07;;;;;;;5.05;1.88;;;;;;;19.46;82.69;100621.19;4943192;28;20043;-75
2022/09/08 11:43:42;;;;;;;5.85;1.70;;;;;;;19.40;77.73;100619.63;4976918;28;20593;-76
2022/09/08 11:46:44;;;;;;;4.90;1.67;;;;;;;19.36;76.66;100616.66;4973970;28;20039;-75
2022/09/08 11:49:30;;;;;;;5.38;1.90;;;;;;;19.41;77.22;100613.84;4980193;28;20041;-73
2022/09/08 11:52:29;;;;;;;7.80;1.90;;;;;;;19.56;76.17;100618.34;4976531;28;20039;-76
2022/09/08 11:55:15;;;;;;;8.65;2.20;;;;;;;19.79;75.08;100608.53;4961776;28;20396;-71
2022/09/08 11:58:20;;;;;;;7.40;2.20;;;;;;;20.14;75.57;100606.44;4952588;29;20042;-73